sensor_id;sensor_type;location;lat;lon;timestamp;pressure;altitude;pressure_sealevel;temperature;humidity
6433;BME280;3249;42.690;23.260;2023-03-16T00:02:11;93414.38;;;2.63;100.00
6433;BME280;3249;42.690;23.260;2023-03-16T00:04:42;93410.63;;;2.59;100.00
6433;BME280;3249;42.690;23.260;2023-03-16T00:07:13;93385.94;;;2.40;100.00
6433;BME280;3249;42.690;23.260;2023-03-16T00:09:42;93415.88;;;2.51;100.00
6433;BME280;3249;42.690;23.260;2023-03-16T00:12:13;93417.03;;;2.42;100.00
6433;BME280;3249;42.690;23.260;2023-03-16T00:14:44;93390.72;;;2.15;100.00
6433;BME280;3249;42.690;23.260;2023-03-16T00:17:16;93418.72;;;2.35;100.00
6433;BME280;3249;42.690;23.260;2023-03-16T00:19:50;93425.63;;;2.41;100.00
6433;BME280;3249;42.690;23.260;2023-03-16T00:22:20;93428.53;;;2.38;100.00
6433;BME280;3249;42.690;23.260;2023-03-16T00:24:49;93428.91;;;2.41;100.00
6433;BME280;3249;42.690;23.260;2023-03-16T00:27:20;93418.91;;;2.33;100.00
6433;BME280;3249;42.690;23.260;2023-03-16T00:29:51;93429.88;;;2.34;100.00
6433;BME280;3249;42.690;23.260;2023-03-16T00:32:23;93428.06;;;2.28;100.00
6433;BME280;3249;42.690;23.260;2023-03-16T00:34:55;93431.41;;;2.28;100.00
6433;BME280;3249;42.690;23.260;2023-03-16T00:37:25;93431.19;;;2.23;100.00
6433;BME280;3249;42.690;23.260;2023-03-16T00:39:55;93434.41;;;2.11;100.00
6433;BME280;3249;42.690;23.260;2023-03-16T00:42:25;93428.47;;;1.97;100.00
6433;BME280;3249;42.690;23.260;2023-03-16T00:44:56;93436.50;;;2.01;100.00
6433;BME280;3249;42.690;23.260;2023-03-16T00:47:28;93447.00;;;1.98;100.00
6433;BME280;3249;42.690;23.260;2023-03-16T00:50:00;93449.50;;;1.91;100.00
6433;BME280;3249;42.690;23.260;2023-03-16T00:52:30;93447.75;;;1.92;100.00
6433;BME280;3249;42.690;23.260;2023-03-16T00:55:01;93447.88;;;1.84;100.00
6433;BME280;3249;42.690;23.260;2023-03-16T00:57:31;93452.38;;;1.82;100.00
6433;BME280;3249;42.690;23.260;2023-03-16T01:00:00;93428.06;;;1.73;100.00
6433;BME280;3249;42.690;23.260;2023-03-16T01:02:37;93435.31;;;1.76;100.00
6433;BME280;3249;42.690;23.260;2023-03-16T01:05:10;93440.84;;;1.79;100.00
6433;BME280;3249;42.690;23.260;2023-03-16T01:07:40;93441.56;;;1.73;100.00
6433;BME280;3249;42.690;23.260;2023-03-16T01:10:11;93440.75;;;1.73;100.00
6433;BME280;3249;42.690;23.260;2023-03-16T01:12:40;93445.84;;;1.73;100.00
6433;BME280;3249;42.690;23.260;2023-03-16T01:15:10;93441.97;;;1.77;100.00
6433;BME280;3249;42.690;23.260;2023-03-16T01:17:39;93455.72;;;1.89;100.00
6433;BME280;3249;42.690;23.260;2023-03-16T01:20:11;93448.91;;;1.89;100.00
6433;BME280;3249;42.690;23.260;2023-03-16T01:22:44;93452.59;;;1.87;100.00
6433;BME280;3249;42.690;23.260;2023-03-16T01:25:13;93431.22;;;1.75;100.00
6433;BME280;3249;42.690;23.260;2023-03-16T01:27:43;93440.03;;;1.79;100.00
6433;BME280;3249;42.690;23.260;2023-03-16T01:30:13;93449.25;;;1.86;100.00
6433;BME280;3249;42.690;23.260;2023-03-16T01:32:42;93449.69;;;1.90;100.00
6433;BME280;3249;42.690;23.260;2023-03-16T01:35:15;93449.88;;;1.88;100.00
6433;BME280;3249;42.690;23.260;2023-03-16T01:37:46;93455.72;;;1.89;100.00
6433;BME280;3249;42.690;23.260;2023-03-16T01:40:20;93458.69;;;1.92;100.00
6433;BME280;3249;42.690;23.260;2023-03-16T01:42:59;93463.22;;;1.97;100.00
6433;BME280;3249;42.690;23.260;2023-03-16T01:48:46;93457.56;;;1.74;100.00
6433;BME280;3249;42.690;23.260;2023-03-16T01:51:25;93468.44;;;1.68;100.00
6433;BME280;3249;42.690;23.260;2023-03-16T01:53:58;93463.91;;;1.63;100.00
6433;BME280;3249;42.690;23.260;2023-03-16T01:56:33;93468.44;;;1.68;100.00
6433;BME280;3249;42.690;23.260;2023-03-16T01:59:07;93469.22;;;1.68;100.00
6433;BME280;3249;42.690;23.260;2023-03-16T02:01:37;93459.84;;;1.69;100.00
6433;BME280;3249;42.690;23.260;2023-03-16T02:04:15;93470.00;;;1.69;100.00
6433;BME280;3249;42.690;23.260;2023-03-16T02:06:48;93476.47;;;1.71;100.00
6433;BME280;3249;42.690;23.260;2023-03-16T02:09:18;93486.28;;;1.81;100.00
6433;BME280;3249;42.690;23.260;2023-03-16T02:11:47;93472.59;;;1.75;100.00
6433;BME280;3249;42.690;23.260;2023-03-16T02:14:17;93494.88;;;1.80;100.00
6433;BME280;3249;42.690;23.260;2023-03-16T02:16:46;93487.25;;;1.80;100.00
6433;BME280;3249;42.690;23.260;2023-03-16T02:19:25;93499.75;;;1.81;100.00
6433;BME280;3249;42.690;23.260;2023-03-16T02:22:05;93498.56;;;1.77;100.00
6433;BME280;3249;42.690;23.260;2023-03-16T02:24:35;93502.44;;;1.73;100.00
6433;BME280;3249;42.690;23.260;2023-03-16T02:27:06;93502.72;;;1.64;100.00
6433;BME280;3249;42.690;23.260;2023-03-16T02:29:59;93505.03;;;1.59;100.00
6433;BME280;3249;42.690;23.260;2023-03-16T02:32:37;93506.81;;;1.44;100.00
6433;BME280;3249;42.690;23.260;2023-03-16T02:35:08;93507.44;;;1.46;100.00
6433;BME280;3249;42.690;23.260;2023-03-16T02:37:38;93498.00;;;1.40;100.00
6433;BME280;3249;42.690;23.260;2023-03-16T02:40:20;93516.97;;;1.44;100.00
6433;BME280;3249;42.690;23.260;2023-03-16T02:42:55;93514.66;;;1.49;100.00
6433;BME280;3249;42.690;23.260;2023-03-16T02:45:35;93517.81;;;1.51;100.00
6433;BME280;3249;42.690;23.260;2023-03-16T02:48:11;93505.97;;;1.37;100.00
6433;BME280;3249;42.690;23.260;2023-03-16T02:50:44;93513.56;;;1.37;100.00
6433;BME280;3249;42.690;23.260;2023-03-16T02:53:15;93504.34;;;1.29;100.00
6433;BME280;3249;42.690;23.260;2023-03-16T02:55:44;93517.63;;;1.31;100.00
6433;BME280;3249;42.690;23.260;2023-03-16T02:58:14;93510.19;;;1.30;100.00
6433;BME280;3249;42.690;23.260;2023-03-16T03:00:48;93498.06;;;1.25;100.00
6433;BME280;3249;42.690;23.260;2023-03-16T03:03:17;93514.88;;;1.33;100.00
6433;BME280;3249;42.690;23.260;2023-03-16T03:05:46;93527.31;;;1.28;100.00
6433;BME280;3249;42.690;23.260;2023-03-16T03:08:15;93521.91;;;1.31;100.00
6433;BME280;3249;42.690;23.260;2023-03-16T03:10:46;93533.78;;;1.30;100.00
6433;BME280;3249;42.690;23.260;2023-03-16T03:13:14;93536.59;;;1.21;100.00
6433;BME280;3249;42.690;23.260;2023-03-16T03:15:44;93540.09;;;1.20;100.00
6433;BME280;3249;42.690;23.260;2023-03-16T03:18:15;93540.09;;;1.20;100.00
6433;BME280;3249;42.690;23.260;2023-03-16T03:20:44;93542.13;;;1.24;100.00
6433;BME280;3249;42.690;23.260;2023-03-16T03:23:13;93539.03;;;1.29;100.00
6433;BME280;3249;42.690;23.260;2023-03-16T03:25:43;93550.84;;;1.22;100.00
6433;BME280;3249;42.690;23.260;2023-03-16T03:28:13;93554.22;;;1.29;100.00
6433;BME280;3249;42.690;23.260;2023-03-16T03:30:42;93555.31;;;1.20;100.00
6433;BME280;3249;42.690;23.260;2023-03-16T03:33:11;93560.38;;;1.20;100.00
6433;BME280;3249;42.690;23.260;2023-03-16T03:35:43;93558.97;;;1.17;100.00
6433;BME280;3249;42.690;23.260;2023-03-16T03:38:12;93557.13;;;1.11;100.00
6433;BME280;3249;42.690;23.260;2023-03-16T03:40:43;93559.50;;;1.13;100.00
6433;BME280;3249;42.690;23.260;2023-03-16T03:43:12;93563.00;;;1.12;100.00
6433;BME280;3249;42.690;23.260;2023-03-16T03:45:43;93563.19;;;1.10;100.00
6433;BME280;3249;42.690;23.260;2023-03-16T03:48:13;93572.63;;;1.02;100.00
6433;BME280;3249;42.690;23.260;2023-03-16T03:50:45;93570.28;;;0.86;100.00
6433;BME280;3249;42.690;23.260;2023-03-16T03:53:34;93568.88;;;0.83;100.00
6433;BME280;3249;42.690;23.260;2023-03-16T03:56:19;93557.97;;;0.68;100.00
6433;BME280;3249;42.690;23.260;2023-03-16T03:58:48;93583.81;;;0.78;100.00
6433;BME280;3249;42.690;23.260;2023-03-16T04:01:28;93588.88;;;0.78;100.00
6433;BME280;3249;42.690;23.260;2023-03-16T04:03:57;93584.50;;;0.87;100.00
6433;BME280;3249;42.690;23.260;2023-03-16T04:06:29;93587.66;;;0.89;100.00
6433;BME280;3249;42.690;23.260;2023-03-16T04:08:59;93558.66;;;0.77;100.00
6433;BME280;3249;42.690;23.260;2023-03-16T04:11:29;93594.72;;;0.93;100.00
6433;BME280;3249;42.690;23.260;2023-03-16T04:13:58;93591.06;;;0.96;100.00
6433;BME280;3249;42.690;23.260;2023-03-16T04:16:27;93586.00;;;0.96;100.00
6433;BME280;3249;42.690;23.260;2023-03-16T04:18:56;93594.56;;;0.95;100.00
6433;BME280;3249;42.690;23.260;2023-03-16T04:21:30;93589.50;;;0.95;100.00
6433;BME280;3249;42.690;23.260;2023-03-16T04:23:59;93589.41;;;1.03;100.00
6433;BME280;3249;42.690;23.260;2023-03-16T04:26:32;93593.34;;;1.05;100.00
6433;BME280;3249;42.690;23.260;2023-03-16T04:29:03;93592.28;;;1.00;100.00
6433;BME280;3249;42.690;23.260;2023-03-16T04:31:33;93608.19;;;1.08;100.00
6433;BME280;3249;42.690;23.260;2023-03-16T04:34:02;93614.47;;;0.98;100.00
6433;BME280;3249;42.690;23.260;2023-03-16T04:36:34;93593.41;;;0.83;100.00
6433;BME280;3249;42.690;23.260;2023-03-16T04:39:04;93614.81;;;0.95;100.00
6433;BME280;3249;42.690;23.260;2023-03-16T04:41:33;93618.59;;;0.99;100.00
6433;BME280;3249;42.690;23.260;2023-03-16T04:44:11;93627.56;;;1.01;100.00
6433;BME280;3249;42.690;23.260;2023-03-16T04:46:40;93627.56;;;1.01;100.00
6433;BME280;3249;42.690;23.260;2023-03-16T04:49:10;93630.63;;;0.97;100.00
6433;BME280;3249;42.690;23.260;2023-03-16T04:51:45;93639.19;;;0.96;100.00
6433;BME280;3249;42.690;23.260;2023-03-16T04:54:17;93639.91;;;0.90;100.00
6433;BME280;3249;42.690;23.260;2023-03-16T04:56:47;93643.28;;;0.82;100.00
6433;BME280;3249;42.690;23.260;2023-03-16T04:59:37;93639.44;;;0.72;100.00
6433;BME280;3249;42.690;23.260;2023-03-16T05:02:20;93634.34;;;0.72;100.00
6433;BME280;3249;42.690;23.260;2023-03-16T05:04:49;93645.72;;;0.76;100.00
6433;BME280;3249;42.690;23.260;2023-03-16T05:07:22;93654.53;;;0.80;100.00
6433;BME280;3249;42.690;23.260;2023-03-16T05:09:54;93652.91;;;0.87;100.00
6433;BME280;3249;42.690;23.260;2023-03-16T05:12:23;93657.34;;;0.85;100.00
6433;BME280;3249;42.690;23.260;2023-03-16T05:14:58;93661.72;;;0.91;100.00
6433;BME280;3249;42.690;23.260;2023-03-16T05:17:50;93666.63;;;0.92;100.00
6433;BME280;3249;42.690;23.260;2023-03-16T05:20:20;93664.69;;;0.94;100.00
6433;BME280;3249;42.690;23.260;2023-03-16T05:22:56;93668.44;;;0.84;100.00
6433;BME280;3249;42.690;23.260;2023-03-16T05:25:28;93667.13;;;0.88;100.00
6433;BME280;3249;42.690;23.260;2023-03-16T05:28:02;93671.31;;;0.95;100.00
6433;BME280;3249;42.690;23.260;2023-03-16T05:30:57;93677.19;;;0.96;100.00
6433;BME280;3249;42.690;23.260;2023-03-16T05:33:29;93684.88;;;1.02;100.00
6433;BME280;3249;42.690;23.260;2023-03-16T05:36:05;93677.53;;;1.07;100.00
6433;BME280;3249;42.690;23.260;2023-03-16T05:38:38;93687.25;;;1.18;100.00
6433;BME280;3249;42.690;23.260;2023-03-16T05:41:10;93690.66;;;1.11;100.00
6433;BME280;3249;42.690;23.260;2023-03-16T05:43:51;93693.44;;;1.16;100.00
6433;BME280;3249;42.690;23.260;2023-03-16T05:46:23;93662.94;;;0.95;100.00
6433;BME280;3249;42.690;23.260;2023-03-16T05:48:52;93692.94;;;1.06;100.00
6433;BME280;3249;42.690;23.260;2023-03-16T05:51:22;93688.88;;;0.97;100.00
6433;BME280;3249;42.690;23.260;2023-03-16T05:53:55;93704.91;;;1.12;100.00
6433;BME280;3249;42.690;23.260;2023-03-16T05:56:31;93702.63;;;1.17;100.00
6433;BME280;3249;42.690;23.260;2023-03-16T05:59:00;93703.84;;;1.21;100.00
6433;BME280;3249;42.690;23.260;2023-03-16T06:01:29;93699.75;;;1.20;100.00
6433;BME280;3249;42.690;23.260;2023-03-16T06:03:59;93703.69;;;1.22;100.00
6433;BME280;3249;42.690;23.260;2023-03-16T06:06:34;93710.44;;;1.30;100.00
6433;BME280;3249;42.690;23.260;2023-03-16T06:09:18;93722.41;;;1.36;100.00
6433;BME280;3249;42.690;23.260;2023-03-16T06:11:48;93726.56;;;1.29;100.00
6433;BME280;3249;42.690;23.260;2023-03-16T06:14:17;93719.94;;;1.13;100.00
6433;BME280;3249;42.690;23.260;2023-03-16T06:16:49;93722.03;;;1.10;100.00
6433;BME280;3249;42.690;23.260;2023-03-16T06:19:18;93722.91;;;1.17;100.00
6433;BME280;3249;42.690;23.260;2023-03-16T06:21:52;93724.50;;;1.18;100.00
6433;BME280;3249;42.690;23.260;2023-03-16T06:24:24;93734.00;;;1.30;100.00
6433;BME280;3249;42.690;23.260;2023-03-16T06:26:53;93726.75;;;1.27;100.00
6433;BME280;3249;42.690;23.260;2023-03-16T06:29:27;93737.34;;;1.31;100.00
6433;BME280;3249;42.690;23.260;2023-03-16T06:31:56;93738.91;;;1.32;100.00
6433;BME280;3249;42.690;23.260;2023-03-16T06:34:26;93741.91;;;1.35;100.00
6433;BME280;3249;42.690;23.260;2023-03-16T06:36:56;93750.44;;;1.20;100.00
6433;BME280;3249;42.690;23.260;2023-03-16T06:39:27;93761.19;;;1.22;100.00
6433;BME280;3249;42.690;23.260;2023-03-16T06:41:56;93753.66;;;1.14;100.00
6433;BME280;3249;42.690;23.260;2023-03-16T06:44:26;93759.25;;;1.24;100.00
6433;BME280;3249;42.690;23.260;2023-03-16T06:47:03;93745.78;;;1.09;100.00
6433;BME280;3249;42.690;23.260;2023-03-16T06:49:33;93754.97;;;1.10;100.00
6433;BME280;3249;42.690;23.260;2023-03-16T06:52:06;93781.47;;;1.22;100.00
6433;BME280;3249;42.690;23.260;2023-03-16T06:54:38;93774.91;;;1.27;100.00
6433;BME280;3249;42.690;23.260;2023-03-16T06:57:08;93770.78;;;1.12;100.00
6433;BME280;3249;42.690;23.260;2023-03-16T06:59:37;93764.66;;;1.21;100.00
6433;BME280;3249;42.690;23.260;2023-03-16T07:02:09;93752.44;;;1.10;100.00
6433;BME280;3249;42.690;23.260;2023-03-16T07:04:40;93788.31;;;1.36;100.00
6433;BME280;3249;42.690;23.260;2023-03-16T07:07:10;93792.41;;;1.37;100.00
6433;BME280;3249;42.690;23.260;2023-03-16T07:09:43;93788.94;;;1.38;100.00
6433;BME280;3249;42.690;23.260;2023-03-16T07:12:12;93791.97;;;1.33;100.00
6433;BME280;3249;42.690;23.260;2023-03-16T07:14:41;93793.03;;;1.39;100.00
6433;BME280;3249;42.690;23.260;2023-03-16T07:17:13;93791.47;;;1.38;100.00
6433;BME280;3249;42.690;23.260;2023-03-16T07:22:31;93798.53;;;1.57;100.00
6433;BME280;3249;42.690;23.260;2023-03-16T07:25:04;93807.84;;;1.64;100.00
6433;BME280;3249;42.690;23.260;2023-03-16T07:27:34;93805.97;;;1.58;100.00
6433;BME280;3249;42.690;23.260;2023-03-16T07:30:06;93802.69;;;1.58;100.00
6433;BME280;3249;42.690;23.260;2023-03-16T07:32:39;93813.41;;;1.60;100.00
6433;BME280;3249;42.690;23.260;2023-03-16T07:35:10;93806.88;;;1.65;100.00
6433;BME280;3249;42.690;23.260;2023-03-16T07:37:39;93815.38;;;1.72;100.00
6433;BME280;3249;42.690;23.260;2023-03-16T07:40:12;93795.34;;;1.63;100.00
6433;BME280;3249;42.690;23.260;2023-03-16T07:42:42;93831.81;;;1.76;100.00
6433;BME280;3249;42.690;23.260;2023-03-16T07:45:24;93823.75;;;1.73;100.00
6433;BME280;3249;42.690;23.260;2023-03-16T07:47:54;93822.44;;;1.77;100.00
6433;BME280;3249;42.690;23.260;2023-03-16T07:50:43;93833.63;;;1.68;100.00
6433;BME280;3249;42.690;23.260;2023-03-16T07:53:13;93824.88;;;1.70;100.00
6433;BME280;3249;42.690;23.260;2023-03-16T07:55:48;93834.00;;;1.79;100.00
6433;BME280;3249;42.690;23.260;2023-03-16T07:58:18;93824.47;;;1.67;100.00
6433;BME280;3249;42.690;23.260;2023-03-16T08:00:48;93830.13;;;1.69;100.00
6433;BME280;3249;42.690;23.260;2023-03-16T08:03:19;93827.78;;;1.82;100.00
6433;BME280;3249;42.690;23.260;2023-03-16T08:05:48;93831.66;;;1.78;100.00
6433;BME280;3249;42.690;23.260;2023-03-16T08:08:18;93847.66;;;1.93;100.00
6433;BME280;3249;42.690;23.260;2023-03-16T08:10:51;93839.50;;;1.97;100.00
6433;BME280;3249;42.690;23.260;2023-03-16T08:13:23;93844.75;;;2.10;100.00
6433;BME280;3249;42.690;23.260;2023-03-16T08:15:52;93822.72;;;2.11;100.00
6433;BME280;3249;42.690;23.260;2023-03-16T08:18:35;93832.84;;;2.25;100.00
6433;BME280;3249;42.690;23.260;2023-03-16T08:21:08;93850.13;;;2.15;100.00
6433;BME280;3249;42.690;23.260;2023-03-16T08:23:37;93854.31;;;2.23;100.00
6433;BME280;3249;42.690;23.260;2023-03-16T08:26:10;93853.16;;;2.25;100.00
6433;BME280;3249;42.690;23.260;2023-03-16T08:28:39;93856.25;;;2.21;100.00
6433;BME280;3249;42.690;23.260;2023-03-16T08:31:13;93853.06;;;2.19;100.00
6433;BME280;3249;42.690;23.260;2023-03-16T08:33:48;93851.75;;;2.37;100.00
6433;BME280;3249;42.690;23.260;2023-03-16T08:36:21;93864.53;;;2.58;100.00
6433;BME280;3249;42.690;23.260;2023-03-16T08:38:53;93865.44;;;2.72;100.00
6433;BME280;3249;42.690;23.260;2023-03-16T08:41:26;93870.06;;;2.83;100.00
6433;BME280;3249;42.690;23.260;2023-03-16T08:43:58;93857.34;;;2.83;100.00
6433;BME280;3249;42.690;23.260;2023-03-16T08:46:28;93874.63;;;2.87;100.00
6433;BME280;3249;42.690;23.260;2023-03-16T08:48:58;93866.00;;;2.88;100.00
6433;BME280;3249;42.690;23.260;2023-03-16T08:51:28;93869.94;;;2.91;100.00
6433;BME280;3249;42.690;23.260;2023-03-16T08:54:00;93880.97;;;2.98;100.00
6433;BME280;3249;42.690;23.260;2023-03-16T08:56:32;93886.53;;;2.87;100.00
6433;BME280;3249;42.690;23.260;2023-03-16T08:59:02;93868.63;;;2.95;100.00
6433;BME280;3249;42.690;23.260;2023-03-16T09:01:31;93872.50;;;2.91;100.00
6433;BME280;3249;42.690;23.260;2023-03-16T09:04:00;93881.97;;;3.18;100.00
6433;BME280;3249;42.690;23.260;2023-03-16T09:06:29;93882.72;;;2.97;100.00
6433;BME280;3249;42.690;23.260;2023-03-16T09:08:59;93880.56;;;2.94;100.00
6433;BME280;3249;42.690;23.260;2023-03-16T09:11:32;93885.09;;;2.99;100.00
6433;BME280;3249;42.690;23.260;2023-03-16T09:14:02;93860.34;;;2.72;100.00
6433;BME280;3249;42.690;23.260;2023-03-16T09:16:34;93859.50;;;2.65;100.00
6433;BME280;3249;42.690;23.260;2023-03-16T09:19:03;93892.69;;;2.78;100.00
6433;BME280;3249;42.690;23.260;2023-03-16T09:21:36;93887.03;;;2.97;100.00
6433;BME280;3249;42.690;23.260;2023-03-16T09:24:07;93864.72;;;2.78;100.00
6433;BME280;3249;42.690;23.260;2023-03-16T09:26:42;93895.34;;;2.91;100.00
6433;BME280;3249;42.690;23.260;2023-03-16T09:29:15;93896.78;;;2.79;100.00
6433;BME280;3249;42.690;23.260;2023-03-16T09:31:44;93864.53;;;2.58;100.00
6433;BME280;3249;42.690;23.260;2023-03-16T09:34:13;93892.97;;;2.68;100.00
6433;BME280;3249;42.690;23.260;2023-03-16T09:36:42;93897.13;;;2.76;100.00
6433;BME280;3249;42.690;23.260;2023-03-16T09:39:12;93899.97;;;2.66;100.00
6433;BME280;3249;42.690;23.260;2023-03-16T09:41:49;93902.69;;;2.50;100.00
6433;BME280;3249;42.690;23.260;2023-03-16T09:44:28;93889.91;;;2.44;100.00
6433;BME280;3249;42.690;23.260;2023-03-16T09:47:01;93907.06;;;2.56;100.00
6433;BME280;3249;42.690;23.260;2023-03-16T09:49:35;93895.00;;;2.44;100.00
6433;BME280;3249;42.690;23.260;2023-03-16T09:52:15;93898.66;;;2.56;100.00
6433;BME280;3249;42.690;23.260;2023-03-16T09:54:55;93886.91;;;2.69;100.00
6433;BME280;3249;42.690;23.260;2023-03-16T09:57:29;93886.41;;;2.95;100.00
6433;BME280;3249;42.690;23.260;2023-03-16T10:00:13;93888.06;;;3.02;100.00
6433;BME280;3249;42.690;23.260;2023-03-16T10:02:57;93887.03;;;2.97;100.00
6433;BME280;3249;42.690;23.260;2023-03-16T10:05:30;93909.91;;;2.97;100.00
6433;BME280;3249;42.690;23.260;2023-03-16T10:08:07;93912.63;;;2.95;100.00
6433;BME280;3249;42.690;23.260;2023-03-16T10:10:51;93917.78;;;3.02;100.00
6433;BME280;3249;42.690;23.260;2023-03-16T10:13:31;93887.28;;;2.66;100.00
6433;BME280;3249;42.690;23.260;2023-03-16T10:16:09;93910.81;;;2.75;100.00
6433;BME280;3249;42.690;23.260;2023-03-16T10:18:43;93899.88;;;2.74;100.00
6433;BME280;3249;42.690;23.260;2023-03-16T10:21:14;93904.94;;;2.89;100.00
6433;BME280;3249;42.690;23.260;2023-03-16T10:23:45;93898.94;;;2.96;100.00
6433;BME280;3249;42.690;23.260;2023-03-16T10:26:17;93908.47;;;3.09;100.00
6433;BME280;3249;42.690;23.260;2023-03-16T10:28:52;93901.56;;;3.03;100.00
6433;BME280;3249;42.690;23.260;2023-03-16T10:31:22;93904.88;;;3.03;100.00
6433;BME280;3249;42.690;23.260;2023-03-16T10:33:55;93889.63;;;3.03;100.00
6433;BME280;3249;42.690;23.260;2023-03-16T10:36:30;93883.28;;;2.93;100.00
6433;BME280;3249;42.690;23.260;2023-03-16T10:39:02;93912.47;;;3.18;100.00
6433;BME280;3249;42.690;23.260;2023-03-16T10:41:34;93908.53;;;3.15;100.00
6433;BME280;3249;42.690;23.260;2023-03-16T10:44:09;93905.19;;;3.15;100.00
6433;BME280;3249;42.690;23.260;2023-03-16T10:46:40;93899.88;;;3.10;100.00
6433;BME280;3249;42.690;23.260;2023-03-16T10:49:22;93894.16;;;3.22;100.00
6433;BME280;3249;42.690;23.260;2023-03-16T10:51:54;93911.53;;;3.40;100.00
6433;BME280;3249;42.690;23.260;2023-03-16T10:54:28;93908.59;;;3.43;100.00
6433;BME280;3249;42.690;23.260;2023-03-16T10:56:58;93892.63;;;3.28;100.00
6433;BME280;3249;42.690;23.260;2023-03-16T10:59:33;93907.44;;;3.24;100.00
6433;BME280;3249;42.690;23.260;2023-03-16T11:02:15;93909.81;;;3.26;100.00
6433;BME280;3249;42.690;23.260;2023-03-16T11:04:44;93881.94;;;2.97;100.00
6433;BME280;3249;42.690;23.260;2023-03-16T11:07:15;93912.47;;;3.18;100.00
6433;BME280;3249;42.690;23.260;2023-03-16T11:09:47;93879.03;;;3.00;100.00
6433;BME280;3249;42.690;23.260;2023-03-16T11:12:23;93901.09;;;3.14;100.00
6433;BME280;3249;42.690;23.260;2023-03-16T11:15:00;93914.03;;;3.19;100.00
6433;BME280;3249;42.690;23.260;2023-03-16T11:17:35;93912.97;;;3.28;100.00
6433;BME280;3249;42.690;23.260;2023-03-16T11:20:13;93905.13;;;3.29;100.00
6433;BME280;3249;42.690;23.260;2023-03-16T11:22:45;93918.41;;;3.46;100.00
6433;BME280;3249;42.690;23.260;2023-03-16T11:25:18;93921.81;;;3.53;100.00
6433;BME280;3249;42.690;23.260;2023-03-16T11:27:57;93916.34;;;3.14;100.00
6433;BME280;3249;42.690;23.260;2023-03-16T11:30:39;93911.75;;;3.24;100.00
6433;BME280;3249;42.690;23.260;2023-03-16T11:33:11;93905.63;;;3.18;100.00
6433;BME280;3249;42.690;23.260;2023-03-16T11:35:46;93912.34;;;3.26;100.00
6433;BME280;3249;42.690;23.260;2023-03-16T11:38:19;93911.75;;;3.24;100.00
6433;BME280;3249;42.690;23.260;2023-03-16T11:40:55;93895.38;;;3.12;100.00
6433;BME280;3249;42.690;23.260;2023-03-16T11:43:48;93900.72;;;3.17;100.00
6433;BME280;3249;42.690;23.260;2023-03-16T11:46:22;93916.47;;;3.27;100.00
6433;BME280;3249;42.690;23.260;2023-03-16T11:49:01;93914.91;;;3.26;100.00
6433;BME280;3249;42.690;23.260;2023-03-16T11:51:42;93910.66;;;3.33;100.00
6433;BME280;3249;42.690;23.260;2023-03-16T11:54:32;93893.69;;;3.19;100.00
6433;BME280;3249;42.690;23.260;2023-03-16T11:57:13;93917.81;;;3.44;100.00
6433;BME280;3249;42.690;23.260;2023-03-16T12:00:02;93913.56;;;3.30;100.00
6433;BME280;3249;42.690;23.260;2023-03-16T12:02:45;93916.59;;;3.19;100.00
6433;BME280;3249;42.690;23.260;2023-03-16T12:05:45;93940.59;;;2.95;100.00
6433;BME280;3249;42.690;23.260;2023-03-16T12:08:38;93927.59;;;3.05;100.00
6433;BME280;3249;42.690;23.260;2023-03-16T12:11:15;93932.84;;;3.03;100.00
6433;BME280;3249;42.690;23.260;2023-03-16T12:13:59;93916.56;;;2.98;100.00
6433;BME280;3249;42.690;23.260;2023-03-16T12:16:34;93933.16;;;3.15;100.00
6433;BME280;3249;42.690;23.260;2023-03-16T12:19:14;93938.00;;;3.10;100.00
6433;BME280;3249;42.690;23.260;2023-03-16T12:21:47;93938.13;;;3.02;100.00
6433;BME280;3249;42.690;23.260;2023-03-16T12:24:22;93939.88;;;2.87;100.00
6433;BME280;3249;42.690;23.260;2023-03-16T12:26:54;93943.25;;;2.73;100.00
6433;BME280;3249;42.690;23.260;2023-03-16T12:29:31;93944.41;;;2.70;100.00
6433;BME280;3249;42.690;23.260;2023-03-16T12:32:09;93924.78;;;2.50;100.00
6433;BME280;3249;42.690;23.260;2023-03-16T12:34:49;93957.00;;;2.64;100.00
6433;BME280;3249;42.690;23.260;2023-03-16T12:37:29;93949.91;;;2.59;100.00
6433;BME280;3249;42.690;23.260;2023-03-16T12:40:08;93948.06;;;2.53;100.00
6433;BME280;3249;42.690;23.260;2023-03-16T12:45:41;93954.72;;;2.40;100.00
6433;BME280;3249;42.690;23.260;2023-03-16T12:48:18;93962.97;;;2.27;100.00
6433;BME280;3249;42.690;23.260;2023-03-16T12:50:56;93963.72;;;2.28;100.00
6433;BME280;3249;42.690;23.260;2023-03-16T12:53:28;93962.75;;;2.14;100.00
6433;BME280;3249;42.690;23.260;2023-03-16T12:56:09;93955.84;;;2.08;100.00
6433;BME280;3249;42.690;23.260;2023-03-16T12:58:44;93935.41;;;1.87;100.00
6433;BME280;3249;42.690;23.260;2023-03-16T13:01:15;93967.03;;;2.14;100.00
6433;BME280;3249;42.690;23.260;2023-03-16T13:03:48;93971.78;;;2.17;100.00
6433;BME280;3249;42.690;23.260;2023-03-16T13:06:23;93964.94;;;2.32;100.00
6433;BME280;3249;42.690;23.260;2023-03-16T13:08:56;93926.69;;;2.19;100.00
6433;BME280;3249;42.690;23.260;2023-03-16T13:11:26;93962.25;;;2.48;100.00
6433;BME280;3249;42.690;23.260;2023-03-16T13:14:07;93977.78;;;2.67;100.00
6433;BME280;3249;42.690;23.260;2023-03-16T13:16:38;93939.38;;;2.48;100.00
6433;BME280;3249;42.690;23.260;2023-03-16T13:19:26;93979.75;;;2.57;100.00
6433;BME280;3249;42.690;23.260;2023-03-16T13:22:16;93977.78;;;2.53;100.00
6433;BME280;3249;42.690;23.260;2023-03-16T13:24:50;93984.41;;;2.54;100.00
6433;BME280;3249;42.690;23.260;2023-03-16T13:27:22;93978.13;;;2.50;100.00
6433;BME280;3249;42.690;23.260;2023-03-16T13:29:56;93984.41;;;2.54;100.00
6433;BME280;3249;42.690;23.260;2023-03-16T13:32:29;93982.50;;;2.70;100.00
6433;BME280;3249;42.690;23.260;2023-03-16T13:35:00;93988.72;;;2.82;100.00
6433;BME280;3249;42.690;23.260;2023-03-16T13:37:32;93984.56;;;2.96;100.00
6433;BME280;3249;42.690;23.260;2023-03-16T13:40:02;93991.75;;;3.07;100.00
6433;BME280;3249;42.690;23.260;2023-03-16T13:42:32;93992.19;;;3.10;100.00
6433;BME280;3249;42.690;23.260;2023-03-16T13:45:12;94000.75;;;3.24;100.00
6433;BME280;3249;42.690;23.260;2023-03-16T13:47:44;93993.75;;;3.11;100.00
6433;BME280;3249;42.690;23.260;2023-03-16T13:50:16;93989.66;;;2.81;100.00
6433;BME280;3249;42.690;23.260;2023-03-16T13:52:56;93989.75;;;2.88;100.00